Time;durP1;ratioP1;P1;durP2;ratioP2;P2;SDS_P1;SDS_P2;PMS_P1;PMS_P2;Temp;Humidity;BMP_temperature;BMP_pressure;BME280_temperature;BME280_humidity;BME280_pressure;Samples;Min_cycle;Max_cycle;Signal;HPM_P1;HPM_P2
2022/07/19 00:00:04;;;;;;;4.63;4.10;;;22.50;94.40;;;;;;4990428;28;20073;-68
2022/07/19 00:02:30;;;;;;;7.13;4.50;;;21.70;94.40;;;;;;4990222;28;20081;-68
2022/07/19 00:04:55;;;;;;;4.40;3.67;;;21.60;94.40;;;;;;4990272;28;20038;-68
2022/07/19 00:07:21;;;;;;;5.50;4.80;;;21.60;94.60;;;;;;4972767;28;20033;-69
2022/07/19 00:09:47;;;;;;;4.18;3.83;;;21.50;94.80;;;;;;4990669;28;20057;-68
2022/07/19 00:12:13;;;;;;;6.75;4.65;;;21.60;95.00;;;;;;4990540;28;20033;-68
2022/07/19 00:14:39;;;;;;;8.27;4.40;;;21.20;95.40;;;;;;4989954;28;20057;-69
2022/07/19 00:17:05;;;;;;;7.05;4.65;;;21.30;95.40;;;;;;4990879;28;20030;-68
2022/07/19 00:19:30;;;;;;;6.00;4.20;;;21.20;95.50;;;;;;4989443;28;20510;-68
2022/07/19 00:24:25;;;;;;;10.80;4.40;;;21.20;94.60;;;;;;4992672;28;20133;-68
2022/07/19 00:26:51;;;;;;;4.97;4.47;;;21.10;95.90;;;;;;4993254;28;20117;-68
2022/07/19 00:29:16;;;;;;;6.20;4.85;;;20.90;96.00;;;;;;5001280;28;20384;-68
2022/07/19 00:31:43;;;;;;;6.72;5.10;;;21.10;96.20;;;;;;5005127;28;20029;-68
2022/07/19 00:34:08;;;;;;;7.88;5.10;;;21.10;96.40;;;;;;5010838;28;20030;-68
2022/07/19 00:36:34;;;;;;;5.32;4.75;;;21.60;96.50;;;;;;4985991;28;20494;-68
2022/07/19 00:39:00;;;;;;;7.00;4.72;;;21.20;96.30;;;;;;5002042;28;20026;-68
2022/07/19 00:41:25;;;;;;;7.13;5.10;;;20.90;96.20;;;;;;5006128;28;20026;-68
2022/07/19 00:43:51;;;;;;;5.57;3.97;;;21.00;96.20;;;;;;4999808;28;20034;-69
2022/07/19 00:46:21;;;;;;;4.70;4.20;;;20.90;96.20;;;;;;5008387;28;20101;-68
2022/07/19 00:48:48;;;;;;;6.78;4.90;;;20.90;96.60;;;;;;4990537;28;20034;-68
2022/07/19 00:51:16;;;;;;;5.03;4.50;;;20.90;96.40;;;;;;5003686;28;20026;-68
2022/07/19 00:53:42;;;;;;;7.03;4.65;;;20.90;96.30;;;;;;4995921;28;20034;-68
2022/07/19 00:56:10;;;;;;;4.93;4.38;;;20.70;96.10;;;;;;5002879;28;20029;-66
2022/07/19 00:58:37;;;;;;;12.13;5.32;;;20.80;96.20;;;;;;4982793;28;20087;-66
2022/07/19 01:01:05;;;;;;;7.65;4.93;;;20.90;96.30;;;;;;5013870;28;20033;-66
2022/07/19 01:03:31;;;;;;;6.10;5.03;;;20.80;96.30;;;;;;5013129;28;20121;-66
2022/07/19 01:05:57;;;;;;;8.35;5.22;;;20.70;96.20;;;;;;5004663;28;20128;-68
2022/07/19 01:08:22;;;;;;;6.90;4.95;;;21.50;96.40;;;;;;5007988;28;20470;-68
2022/07/19 01:10:48;;;;;;;5.20;4.78;;;20.70;96.10;;;;;;5013719;28;20502;-68
2022/07/19 01:13:14;;;;;;;7.43;4.80;;;20.80;96.20;;;;;;5013283;28;20036;-68
2022/07/19 01:15:41;;;;;;;6.25;5.45;;;20.80;96.10;;;;;;5013185;28;20052;-68
2022/07/19 01:18:08;;;;;;;9.40;5.15;;;20.80;96.10;;;;;;4992128;28;20467;-68
2022/07/19 01:20:34;;;;;;;5.07;4.57;;;20.80;96.00;;;;;;5003745;28;20427;-68
2022/07/19 01:23:00;;;;;;;7.35;4.53;;;20.80;96.00;;;;;;5002338;28;20057;-68
2022/07/19 01:25:29;;;;;;;8.15;4.05;;;21.90;96.40;;;;;;5012752;28;20030;-67
2022/07/19 01:27:54;;;;;;;11.95;5.00;;;20.80;96.30;;;;;;5013295;28;20025;-68
2022/07/19 01:30:22;;;;;;;7.28;5.43;;;21.10;96.00;;;;;;5012770;28;20026;-68
2022/07/19 01:32:49;;;;;;;7.25;4.30;;;21.20;96.20;;;;;;4998335;28;20470;-67
2022/07/19 01:35:15;;;;;;;4.80;4.30;;;20.70;95.90;;;;;;5012276;28;20474;-69
2022/07/19 01:37:40;;;;;;;6.25;4.30;;;20.80;95.90;;;;;;5012768;28;20030;-68
2022/07/19 01:40:09;;;;;;;8.30;4.55;;;20.70;96.00;;;;;;4995685;28;20029;-68
2022/07/19 01:42:35;;;;;;;5.32;4.53;;;20.70;96.30;;;;;;5012705;28;20098;-68
2022/07/19 01:45:01;;;;;;;7.65;4.30;;;20.60;96.50;;;;;;5005841;28;20496;-68
2022/07/19 01:47:26;;;;;;;6.90;4.63;;;20.50;96.60;;;;;;4992871;28;20035;-68
2022/07/19 01:49:52;;;;;;;4.53;4.13;;;20.40;96.70;;;;;;5011077;28;20022;-68
2022/07/19 01:52:17;;;;;;;6.15;5.03;;;20.30;96.80;;;;;;5000658;28;20121;-68
2022/07/19 01:54:43;;;;;;;5.57;5.07;;;20.30;97.00;;;;;;4998656;28;20184;-68
2022/07/19 01:57:09;;;;;;;4.75;4.25;;;20.30;97.00;;;;;;5004068;28;20018;-68
2022/07/19 01:59:38;;;;;;;5.85;5.30;;;20.50;97.00;;;;;;4994094;28;20105;-68
2022/07/19 02:02:04;;;;;;;6.78;4.97;;;20.30;97.40;;;;;;5004801;28;20022;-68
2022/07/19 02:04:30;;;;;;;7.07;4.85;;;20.20;97.10;;;;;;5005388;28;20088;-68
2022/07/19 02:06:55;;;;;;;5.93;4.30;;;21.10;97.20;;;;;;4998713;28;20634;-67
2022/07/19 02:09:21;;;;;;;5.03;4.43;;;20.10;97.00;;;;;;5011713;28;20038;-68
2022/07/19 02:11:47;;;;;;;5.88;4.47;;;20.20;97.10;;;;;;4998628;28;20383;-68
2022/07/19 02:14:12;;;;;;;4.53;4.13;;;20.10;97.10;;;;;;5012103;28;20080;-68
2022/07/19 02:16:39;;;;;;;5.40;4.68;;;20.10;97.10;;;;;;5010337;28;20028;-68
2022/07/19 02:19:06;;;;;;;6.43;4.32;;;20.10;97.30;;;;;;4999903;28;20461;-68
2022/07/19 02:21:32;;;;;;;5.50;4.85;;;20.00;97.20;;;;;;5006478;28;20426;-67
2022/07/19 02:23:58;;;;;;;6.35;4.38;;;20.20;97.20;;;;;;5003006;28;20054;-68
2022/07/19 02:26:23;;;;;;;5.25;4.00;;;21.40;97.40;;;;;;4995582;28;20385;-68
2022/07/19 02:28:49;;;;;;;6.40;4.05;;;20.00;97.10;;;;;;5010444;28;20582;-68
2022/07/19 02:31:15;;;;;;;7.38;4.43;;;20.00;97.20;;;;;;5010156;28;20014;-68
2022/07/19 02:33:40;;;;;;;5.68;4.15;;;19.90;97.20;;;;;;5009715;28;20046;-68
2022/07/19 02:36:06;;;;;;;8.98;3.88;;;19.80;97.20;;;;;;5010406;28;20029;-68
2022/07/19 02:38:31;;;;;;;5.70;4.18;;;19.80;97.20;;;;;;5010866;28;20433;-68
2022/07/19 02:40:57;;;;;;;4.90;4.40;;;19.90;97.30;;;;;;5009691;28;20112;-68
2022/07/19 02:43:23;;;;;;;5.75;4.10;;;19.80;97.20;;;;;;4999760;28;20068;-68
2022/07/19 02:45:48;;;;;;;6.15;4.55;;;19.90;97.20;;;;;;5011796;28;20029;-68
2022/07/19 02:48:14;;;;;;;5.40;4.18;;;19.80;97.10;;;;;;4993183;28;20026;-68
2022/07/19 02:50:40;;;;;;;7.63;4.40;;;19.80;97.00;;;;;;4981330;28;20042;-67
2022/07/19 02:53:06;;;;;;;6.95;4.45;;;19.90;96.90;;;;;;4997592;28;20022;-68
2022/07/19 02:55:31;;;;;;;5.78;3.92;;;19.90;96.80;;;;;;5001504;28;20037;-68
2022/07/19 02:57:57;;;;;;;5.13;4.35;;;19.80;96.80;;;;;;4993899;28;20112;-68
2022/07/19 03:00:23;;;;;;;4.13;3.35;;;19.70;96.70;;;;;;5011166;28;20072;-68
2022/07/19 03:02:49;;;;;;;4.80;4.13;;;19.80;96.80;;;;;;4993276;28;20026;-68
2022/07/19 03:05:14;;;;;;;5.10;4.03;;;19.80;96.70;;;;;;5009157;28;20025;-68
2022/07/19 03:07:40;;;;;;;6.78;4.20;;;19.80;96.70;;;;;;5010971;28;20034;-68
2022/07/19 03:10:06;;;;;;;3.97;3.35;;;19.70;96.50;;;;;;4993937;28;20029;-68
2022/07/19 03:12:32;;;;;;;6.28;5.03;;;19.90;96.60;;;;;;5010821;28;20477;-67
2022/07/19 03:14:57;;;;;;;6.28;4.47;;;19.70;96.50;;;;;;5011277;28;20038;-68
2022/07/19 03:17:23;;;;;;;5.70;3.97;;;20.80;96.80;;;;;;5010114;28;20060;-68
2022/07/19 03:19:49;;;;;;;5.28;3.55;;;19.80;96.60;;;;;;5011176;28;20030;-68
2022/07/19 03:22:14;;;;;;;4.15;3.72;;;19.70;96.50;;;;;;4996822;28;20026;-68
2022/07/19 03:24:40;;;;;;;6.82;3.88;;;19.70;96.60;;;;;;5010816;28;20049;-68
2022/07/19 03:27:05;;;;;;;5.88;3.78;;;19.60;96.60;;;;;;5011189;28;20122;-68
2022/07/19 03:29:31;;;;;;;10.05;3.92;;;19.70;96.70;;;;;;5010448;28;20041;-68
2022/07/19 03:31:58;;;;;;;4.65;3.80;;;19.60;96.80;;;;;;5010452;28;20109;-68
2022/07/19 03:34:24;;;;;;;5.00;3.70;;;19.60;97.00;;;;;;5010443;28;20044;-68
2022/07/19 03:36:49;;;;;;;6.78;3.78;;;19.60;96.80;;;;;;4997265;28;20403;-68
2022/07/19 03:39:15;;;;;;;6.43;3.47;;;19.60;96.80;;;;;;4999289;28;20030;-68
2022/07/19 03:41:41;;;;;;;4.88;3.83;;;19.60;96.70;;;;;;4997990;28;20037;-68
2022/07/19 03:44:06;;;;;;;4.40;3.55;;;19.70;96.70;;;;;;4991348;28;20034;-68
2022/07/19 03:46:32;;;;;;;3.85;3.45;;;19.90;96.70;;;;;;4987575;28;20399;-68
2022/07/19 03:48:57;;;;;;;9.57;4.38;;;19.70;96.60;;;;;;5001871;28;20037;-68
2022/07/19 03:51:24;;;;;;;5.10;3.53;;;19.60;96.60;;;;;;5009268;28;20030;-67
2022/07/19 03:53:49;;;;;;;7.07;4.13;;;19.60;96.80;;;;;;5000719;28;20113;-67
2022/07/19 03:56:17;;;;;;;5.70;3.72;;;19.60;96.80;;;;;;5004346;28;20522;-68
2022/07/19 03:58:43;;;;;;;5.32;3.80;;;19.60;96.80;;;;;;4990958;28;20035;-68
2022/07/19 04:01:09;;;;;;;5.68;3.78;;;19.60;96.70;;;;;;4990053;28;20049;-68
2022/07/19 04:03:39;;;;;;;5.13;3.20;;;19.50;96.60;;;;;;4990805;28;20030;-68
2022/07/19 04:06:09;;;;;;;5.97;3.80;;;19.60;96.90;;;;;;5003811;28;20037;-68
2022/07/19 04:08:34;;;;;;;5.85;3.22;;;19.60;97.10;;;;;;5010065;28;20030;-68
2022/07/19 04:11:00;;;;;;;4.95;3.40;;;19.70;96.40;;;;;;4999308;28;20042;-68
2022/07/19 04:13:26;;;;;;;7.53;3.88;;;19.60;96.20;;;;;;4994890;28;20492;-68
2022/07/19 04:15:52;;;;;;;3.95;3.35;;;19.50;96.20;;;;;;4999480;28;20112;-68
2022/07/19 04:18:17;;;;;;;5.55;3.33;;;19.60;96.10;;;;;;5006727;28;20022;-68
2022/07/19 04:20:43;;;;;;;5.60;3.75;;;19.70;96.00;;;;;;5010217;28;20033;-69
2022/07/19 04:23:09;;;;;;;7.65;3.10;;;19.70;95.90;;;;;;5002930;28;20053;-67
2022/07/19 04:25:35;;;;;;;9.73;3.35;;;19.60;95.90;;;;;;5003744;28;20061;-68
2022/07/19 04:28:01;;;;;;;6.07;3.53;;;19.80;95.80;;;;;;5009963;28;20034;-67
2022/07/19 04:30:27;;;;;;;6.03;3.15;;;19.70;95.80;;;;;;4999123;28;20080;-68
2022/07/19 04:32:53;;;;;;;4.70;3.35;;;19.80;95.70;;;;;;4989814;28;20590;-68
2022/07/19 04:35:19;;;;;;;6.38;3.50;;;19.80;95.60;;;;;;5013590;28;20041;-68
2022/07/19 04:37:44;;;;;;;7.53;2.95;;;19.80;95.50;;;;;;5014390;28;20029;-68
2022/07/19 04:40:10;;;;;;;8.30;3.33;;;19.90;95.40;;;;;;5013931;28;20029;-68
2022/07/19 04:42:36;;;;;;;10.82;4.05;;;20.00;95.40;;;;;;4995705;28;20117;-69
2022/07/19 04:45:02;;;;;;;7.10;3.35;;;19.70;95.30;;;;;;5004419;28;20485;-67
2022/07/19 04:47:27;;;;;;;6.65;3.70;;;20.00;95.40;;;;;;5003474;28;20031;-67
2022/07/19 04:49:53;;;;;;;11.68;3.65;;;19.90;95.20;;;;;;5001772;28;20042;-68
2022/07/19 04:52:18;;;;;;;6.78;3.70;;;19.90;95.20;;;;;;5002280;28;20386;-67
2022/07/19 04:54:44;;;;;;;7.63;3.72;;;20.00;95.10;;;;;;5002439;28;20034;-68
2022/07/19 04:57:09;;;;;;;6.97;3.60;;;20.00;95.10;;;;;;4993696;28;20065;-68
2022/07/19 04:59:35;;;;;;;8.15;3.28;;;20.10;95.00;;;;;;5001450;28;20458;-69
2022/07/19 05:02:01;;;;;;;7.32;3.00;;;20.10;94.80;;;;;;4994359;28;20049;-69
2022/07/19 05:04:26;;;;;;;8.13;2.75;;;20.20;94.60;;;;;;4993640;28;20018;-68
2022/07/19 05:06:56;;;;;;;5.75;2.90;;;20.20;94.30;;;;;;4994058;28;20054;-68
2022/07/19 05:09:26;;;;;;;3.97;2.90;;;20.50;94.40;;;;;;5000384;28;20042;-69
2022/07/19 05:11:52;;;;;;;4.22;2.72;;;20.40;94.30;;;;;;5006003;28;20069;-69
2022/07/19 05:14:19;;;;;;;4.22;3.08;;;20.50;94.10;;;;;;4996069;28;20042;-68
2022/07/19 05:16:44;;;;;;;4.05;3.05;;;21.70;94.30;;;;;;4993855;28;20487;-68
2022/07/19 05:19:10;;;;;;;7.15;2.95;;;20.60;93.90;;;;;;4993584;28;20037;-68
2022/07/19 05:21:36;;;;;;;3.67;3.22;;;20.70;93.70;;;;;;4993384;28;20093;-68
2022/07/19 05:24:02;;;;;;;4.32;3.05;;;20.70;93.50;;;;;;4993854;28;20058;-68
2022/07/19 05:26:28;;;;;;;4.13;2.92;;;20.80;99.80;;;;;;5000114;28;20425;-68
2022/07/19 05:28:53;;;;;;;3.78;3.03;;;21.00;93.30;;;;;;4996605;28;20037;-68
2022/07/19 05:31:19;;;;;;;6.72;4.18;;;21.00;93.20;;;;;;5000042;28;20360;-68
2022/07/19 05:33:44;;;;;;;6.80;3.13;;;21.10;93.10;;;;;;5013185;28;20580;-70
2022/07/19 05:36:10;;;;;;;3.60;3.17;;;21.30;93.00;;;;;;4999045;28;20036;-70
2022/07/19 05:38:40;;;;;;;4.10;2.92;;;21.20;92.90;;;;;;5012132;28;20670;-69
2022/07/19 05:41:10;;;;;;;9.25;3.92;;;21.40;92.10;;;;;;5002743;28;20030;-71
2022/07/19 05:43:37;;;;;;;7.32;4.15;;;21.40;92.90;;;;;;4994238;28;20030;-68
2022/07/19 05:46:03;;;;;;;5.97;4.00;;;21.50;92.40;;;;;;4986000;28;20035;-69
2022/07/19 05:48:29;;;;;;;4.95;3.65;;;21.60;92.10;;;;;;4988893;28;20101;-69
2022/07/19 05:50:55;;;;;;;6.15;3.85;;;21.70;92.00;;;;;;4987036;28;20105;-69
2022/07/19 05:53:20;;;;;;;6.75;4.47;;;21.80;91.70;;;;;;4996726;28;20117;-69
2022/07/19 05:55:46;;;;;;;7.30;4.63;;;21.80;91.40;;;;;;4988632;28;20428;-69
2022/07/19 05:58:12;;;;;;;10.60;3.92;;;22.00;91.30;;;;;;4998285;28;20089;-69
2022/07/19 06:00:37;;;;;;;10.07;5.10;;;22.10;90.90;;;;;;4982565;28;20463;-69
2022/07/19 06:03:03;;;;;;;10.38;5.80;;;22.10;90.60;;;;;;4998724;28;20098;-70
2022/07/19 06:05:29;;;;;;;6.78;5.35;;;22.30;90.40;;;;;;4998466;28;20028;-70
2022/07/19 06:07:54;;;;;;;9.00;6.50;;;22.50;90.00;;;;;;4990489;28;20423;-71
2022/07/19 06:10:20;;;;;;;7.32;4.90;;;22.40;89.00;;;;;;4995780;28;20030;-72
2022/07/19 06:12:46;;;;;;;8.35;5.78;;;22.50;88.80;;;;;;5012503;28;20034;-70
2022/07/19 06:15:11;;;;;;;6.68;5.20;;;22.60;88.60;;;;;;5011797;28;20042;-70
2022/07/19 06:17:37;;;;;;;11.88;6.10;;;23.20;89.00;;;;;;5012080;28;20057;-69
2022/07/19 06:20:04;;;;;;;10.45;4.90;;;22.80;88.50;;;;;;5012459;28;20041;-70
2022/07/19 06:22:33;;;;;;;9.25;6.57;;;22.90;88.30;;;;;;4984347;28;20049;-70
2022/07/19 06:24:58;;;;;;;14.93;6.85;;;22.90;88.50;;;;;;5012001;28;20022;-69
2022/07/19 06:27:24;;;;;;;8.60;7.13;;;23.00;88.00;;;;;;5010047;28;20018;-69
2022/07/19 06:29:49;;;;;;;13.45;6.88;;;22.90;87.80;;;;;;4976955;28;20034;-71
2022/07/19 06:32:15;;;;;;;11.30;7.22;;;23.00;87.90;;;;;;4981039;28;20031;-69
2022/07/19 06:34:40;;;;;;;10.05;6.72;;;23.10;88.50;;;;;;5011622;28;20553;-69
2022/07/19 06:37:06;;;;;;;12.18;7.15;;;23.00;89.20;;;;;;5008984;28;20049;-69
2022/07/19 06:39:32;;;;;;;9.30;6.35;;;23.10;90.20;;;;;;4991478;28;20022;-69
2022/07/19 06:41:57;;;;;;;9.18;6.93;;;23.10;90.60;;;;;;4992199;28;20030;-70
2022/07/19 06:44:23;;;;;;;7.88;5.70;;;22.90;90.90;;;;;;4991670;28;20030;-70
2022/07/19 06:46:49;;;;;;;7.57;6.05;;;22.60;90.80;;;;;;4992285;28;20065;-70
2022/07/19 06:49:14;;;;;;;8.35;5.75;;;23.20;91.00;;;;;;5002127;28;20061;-70
2022/07/19 06:51:40;;;;;;;8.25;6.63;;;23.10;90.50;;;;;;4988862;28;20018;-70
2022/07/19 06:54:05;;;;;;;7.97;5.32;;;23.20;90.20;;;;;;4984468;28;20049;-69
2022/07/19 06:56:31;;;;;;;8.10;5.90;;;23.00;90.00;;;;;;4988098;28;20056;-69
2022/07/19 06:58:56;;;;;;;7.53;5.28;;;23.30;90.00;;;;;;4976831;28;20033;-69
2022/07/19 07:01:22;;;;;;;8.60;5.30;;;23.40;90.20;;;;;;4993386;28;20089;-70
2022/07/19 07:03:48;;;;;;;7.25;5.85;;;23.40;90.10;;;;;;5009558;28;20386;-69
2022/07/19 07:06:13;;;;;;;6.78;5.28;;;23.50;89.90;;;;;;4995119;28;20034;-69
2022/07/19 07:08:39;;;;;;;8.98;6.55;;;23.60;89.40;;;;;;4994370;28;20026;-69
2022/07/19 07:11:04;;;;;;;7.90;5.50;;;23.60;89.20;;;;;;4990855;28;20034;-69
2022/07/19 07:13:30;;;;;;;9.93;5.65;;;24.60;89.10;;;;;;4988652;28;20122;-69
2022/07/19 07:15:55;;;;;;;6.43;4.63;;;23.80;88.50;;;;;;4991848;28;20437;-70
2022/07/19 07:18:21;;;;;;;6.03;4.10;;;23.90;88.20;;;;;;4986195;28;20446;-69
2022/07/19 07:20:46;;;;;;;9.02;4.40;;;24.20;88.00;;;;;;4980370;28;20471;-69
2022/07/19 07:23:12;;;;;;;6.00;4.85;;;24.40;88.00;;;;;;4990004;28;20541;-69
2022/07/19 07:25:37;;;;;;;5.85;4.43;;;24.30;87.40;;;;;;4990692;28;20410;-71
2022/07/19 07:28:03;;;;;;;7.43;4.85;;;24.30;87.20;;;;;;4991353;28;20030;-69
2022/07/19 07:30:29;;;;;;;4.80;3.90;;;24.60;87.20;;;;;;4996632;28;20250;-69
2022/07/19 07:32:54;;;;;;;8.82;4.57;;;25.00;87.30;;;;;;4983789;28;20107;-70
2022/07/19 07:35:20;;;;;;;5.60;5.03;;;24.70;86.70;;;;;;4999654;28;20147;-69
2022/07/19 07:37:46;;;;;;;7.20;4.05;;;24.90;85.90;;;;;;4994599;28;20026;-70
2022/07/19 07:40:12;;;;;;;5.68;4.43;;;24.90;85.60;;;;;;4994922;28;20113;-69
2022/07/19 07:42:37;;;;;;;5.63;3.95;;;25.10;85.40;;;;;;4996375;28;20022;-70
2022/07/19 07:45:03;;;;;;;4.97;3.78;;;25.10;85.10;;;;;;4994651;28;20034;-69
2022/07/19 07:47:29;;;;;;;5.78;3.78;;;25.50;84.90;;;;;;4995250;28;20123;-70
2022/07/19 07:49:55;;;;;;;6.00;3.67;;;26.70;85.30;;;;;;5000553;28;20169;-69
2022/07/19 07:52:20;;;;;;;6.78;4.00;;;25.50;84.10;;;;;;5008841;28;20091;-69
2022/07/19 07:54:47;;;;;;;7.05;4.65;;;25.90;83.80;;;;;;4991686;28;20034;-69
2022/07/19 07:57:13;;;;;;;6.18;4.38;;;26.00;83.10;;;;;;5004721;28;20026;-69
2022/07/19 07:59:38;;;;;;;9.60;3.83;;;25.80;82.70;;;;;;4993465;28;20038;-69
2022/07/19 08:02:04;;;;;;;7.18;4.28;;;26.80;82.90;;;;;;4993861;28;20026;-69
2022/07/19 08:04:29;;;;;;;8.15;3.47;;;26.20;81.50;;;;;;4999029;28;20026;-69
2022/07/19 08:06:55;;;;;;;9.20;4.25;;;26.30;81.10;;;;;;4987052;28;20038;-69
2022/07/19 08:09:21;;;;;;;6.97;4.30;;;26.30;80.60;;;;;;4982333;28;20058;-69
2022/07/19 08:11:46;;;;;;;7.60;4.00;;;26.50;80.70;;;;;;4995198;28;20022;-69
2022/07/19 08:14:12;;;;;;;7.00;4.00;;;26.50;80.60;;;;;;4990407;28;20047;-69
2022/07/19 08:16:38;;;;;;;5.35;3.35;;;26.70;80.10;;;;;;4990667;28;20470;-69
2022/07/19 08:19:03;;;;;;;6.43;3.58;;;27.10;80.20;;;;;;4991032;28;20030;-69
2022/07/19 08:21:29;;;;;;;5.32;2.83;;;26.90;79.10;;;;;;4996837;28;20527;-69
2022/07/19 08:23:55;;;;;;;9.68;3.30;;;27.00;78.90;;;;;;5003958;28;20444;-69
2022/07/19 08:26:21;;;;;;;6.03;2.92;;;27.20;78.90;;;;;;4992953;28;20022;-69
2022/07/19 08:28:47;;;;;;;7.53;3.60;;;28.40;79.80;;;;;;4990943;28;20045;-70
2022/07/19 08:31:14;;;;;;;8.45;3.10;;;27.30;78.70;;;;;;4988587;28;20370;-70
2022/07/19 08:33:40;;;;;;;4.55;3.33;;;27.40;78.70;;;;;;4991034;28;20030;-70
2022/07/19 08:36:06;;;;;;;5.55;3.05;;;27.50;78.50;;;;;;5003607;28;20052;-70
2022/07/19 08:38:32;;;;;;;5.43;3.13;;;27.60;77.10;;;;;;4988735;28;20037;-70
2022/07/19 08:40:59;;;;;;;6.45;3.00;;;28.50;77.40;;;;;;4991045;28;20062;-71
2022/07/19 08:43:26;;;;;;;4.90;2.70;;;28.40;77.50;;;;;;4995996;28;20022;-70
2022/07/19 08:45:53;;;;;;;5.93;3.47;;;27.90;76.60;;;;;;4991262;28;20035;-70
2022/07/19 08:48:19;;;;;;;4.97;2.92;;;27.90;75.80;;;;;;4991503;28;20026;-70
2022/07/19 08:50:46;;;;;;;6.82;2.40;;;28.00;75.80;;;;;;4995644;28;20025;-70
2022/07/19 08:53:12;;;;;;;4.18;2.58;;;28.10;75.50;;;;;;4994489;28;20041;-70
2022/07/19 08:55:37;;;;;;;6.22;2.80;;;28.80;75.50;;;;;;4996524;28;20077;-70
2022/07/19 08:58:03;;;;;;;4.18;2.35;;;28.30;74.40;;;;;;4996207;28;20026;-70
2022/07/19 09:00:31;;;;;;;6.65;2.67;;;29.40;75.10;;;;;;4998375;28;20466;-70
2022/07/19 09:02:59;;;;;;;5.32;2.35;;;28.40;74.10;;;;;;4991344;28;20022;-70
2022/07/19 09:05:26;;;;;;;6.80;2.90;;;28.50;74.00;;;;;;4993458;28;20023;-70
2022/07/19 09:08:14;;;;;;;7.25;2.40;;;28.40;73.10;;;;;;4996092;28;20023;-69
2022/07/19 09:13:34;;;;;;;3.20;2.60;;;28.80;73.80;;;;;;4989836;28;20525;-70
2022/07/19 09:16:00;;;;;;;4.22;2.70;;;28.80;72.90;;;;;;4996123;28;20035;-69
2022/07/19 09:18:28;;;;;;;4.03;2.65;;;28.80;72.70;;;;;;4998078;28;20027;-70
2022/07/19 09:20:56;;;;;;;4.00;2.55;;;29.00;71.20;;;;;;4995750;28;20022;-69
2022/07/19 09:23:23;;;;;;;5.38;2.63;;;29.00;72.30;;;;;;4999118;28;20031;-70
2022/07/19 09:25:54;;;;;;;6.07;3.22;;;29.00;72.50;;;;;;4994000;28;20141;-70
2022/07/19 09:28:22;;;;;;;4.80;2.35;;;29.10;71.00;;;;;;4993693;28;20045;-70
2022/07/19 09:30:50;;;;;;;4.07;2.30;;;29.40;70.40;;;;;;4994603;28;20161;-70
2022/07/19 09:33:21;;;;;;;5.22;2.50;;;29.70;69.80;;;;;;4993122;28;20080;-70
2022/07/19 09:35:58;;;;;;;7.28;2.10;;;29.40;70.00;;;;;;4993943;28;20120;-70
2022/07/19 09:38:26;;;;;;;3.17;2.17;;;29.70;70.40;;;;;;4993491;28;20033;-67
2022/07/19 09:41:08;;;;;;;4.65;1.90;;;29.90;69.80;;;;;;5008279;28;20101;-68
2022/07/19 09:43:52;;;;;;;8.43;2.40;;;30.80;70.00;;;;;;5007868;28;20422;-68
2022/07/19 09:46:50;;;;;;;7.15;2.33;;;30.50;68.80;;;;;;4992946;28;20080;-68
2022/07/19 09:49:17;;;;;;;4.53;2.42;;;30.00;65.90;;;;;;4978446;28;20035;-67
2022/07/19 09:51:51;;;;;;;3.03;1.90;;;30.10;66.90;;;;;;5006643;28;20015;-67
2022/07/19 09:54:23;;;;;;;5.72;2.65;;;30.00;67.10;;;;;;4992352;28;20042;-67
2022/07/19 09:56:50;;;;;;;5.78;2.00;;;30.50;67.10;;;;;;4993740;28;20022;-68
2022/07/19 09:59:18;;;;;;;5.10;2.00;;;30.70;66.50;;;;;;4992310;28;20092;-68
2022/07/19 10:01:45;;;;;;;4.40;1.77;;;30.10;66.00;;;;;;4993140;28;20027;-68
2022/07/19 10:04:16;;;;;;;3.40;2.00;;;30.20;65.70;;;;;;5003696;28;20033;-68
2022/07/19 10:06:43;;;;;;;5.63;2.33;;;30.30;65.60;;;;;;4993200;28;20026;-68
2022/07/19 10:09:12;;;;;;;5.65;2.40;;;30.50;65.40;;;;;;4993563;28;20054;-68
2022/07/19 10:11:38;;;;;;;6.28;2.20;;;30.70;65.50;;;;;;4992466;28;20099;-68
2022/07/19 10:14:04;;;;;;;5.55;2.63;;;30.50;64.90;;;;;;4992636;28;20040;-67
2022/07/19 10:16:48;;;;;;;3.53;1.67;;;32.00;65.40;;;;;;4992082;28;20105;-67
2022/07/19 10:19:34;;;;;;;3.85;2.20;;;30.90;65.00;;;;;;4998047;28;20068;-68
2022/07/19 10:22:01;;;;;;;4.72;2.40;;;31.90;66.20;;;;;;5002072;28;20033;-68
2022/07/19 10:24:41;;;;;;;5.40;2.20;;;30.80;63.50;;;;;;5000392;28;20054;-68
2022/07/19 10:27:08;;;;;;;6.10;2.05;;;30.80;63.80;;;;;;4992722;28;20371;-71
2022/07/19 10:29:33;;;;;;;8.65;2.85;;;30.90;63.00;;;;;;4991979;28;20041;-70
2022/07/19 10:32:04;;;;;;;3.88;1.88;;;31.30;63.10;;;;;;4999443;28;20014;-70
2022/07/19 10:34:30;;;;;;;2.80;1.85;;;31.00;63.00;;;;;;5010423;28;20495;-71
2022/07/19 10:36:56;;;;;;;4.00;2.33;;;31.00;61.70;;;;;;5001639;28;20045;-70
2022/07/19 10:39:33;;;;;;;4.95;2.50;;;31.20;61.10;;;;;;4988246;28;20034;-70
2022/07/19 10:42:28;;;;;;;5.70;2.13;;;31.30;59.20;;;;;;5003998;28;20395;-70
2022/07/19 10:44:57;;;;;;;4.65;2.40;;;31.40;60.60;;;;;;4984646;28;20030;-71
2022/07/19 10:47:31;;;;;;;3.25;1.75;;;30.70;59.70;;;;;;4994935;28;20042;-70
2022/07/19 10:50:08;;;;;;;4.95;2.00;;;31.60;57.50;;;;;;5008169;28;20018;-71
2022/07/19 10:52:35;;;;;;;2.97;1.75;;;31.60;57.20;;;;;;4997610;28;20116;-70
2022/07/19 10:55:25;;;;;;;3.45;1.60;;;31.30;58.50;;;;;;4991562;28;20390;-70
2022/07/19 10:58:09;;;;;;;1.73;1.50;;;31.80;57.20;;;;;;4986552;28;20038;-70
2022/07/19 11:00:49;;;;;;;3.55;1.85;;;31.90;58.90;;;;;;4991203;28;20109;-71
2022/07/19 11:03:20;;;;;;;3.97;2.20;;;31.30;57.70;;;;;;4991475;28;20081;-70
2022/07/19 11:05:49;;;;;;;4.13;1.50;;;31.80;58.00;;;;;;4991839;28;20065;-71
2022/07/19 11:08:15;;;;;;;4.50;2.30;;;32.00;57.70;;;;;;4991372;28;20471;-70
2022/07/19 11:10:40;;;;;;;2.67;1.23;;;32.20;57.20;;;;;;4990349;28;20475;-70
2022/07/19 11:13:06;;;;;;;2.35;1.80;;;32.30;57.00;;;;;;4991457;28;20045;-70
2022/07/19 11:15:34;;;;;;;1.83;1.45;;;32.10;55.90;;;;;;4990387;28;20030;-70
2022/07/19 11:18:02;;;;;;;3.28;1.83;;;33.60;55.80;;;;;;4990760;28;20058;-70
2022/07/19 11:20:30;;;;;;;2.88;1.95;;;33.90;56.80;;;;;;4991399;28;20038;-70
2022/07/19 11:22:57;;;;;;;2.78;1.85;;;32.20;55.40;;;;;;4992486;28;20172;-70
2022/07/19 11:25:28;;;;;;;4.68;1.92;;;32.40;55.00;;;;;;4990045;28;20084;-70
2022/07/19 11:27:54;;;;;;;2.70;1.80;;;32.70;55.30;;;;;;4997016;28;20026;-70
2022/07/19 11:30:22;;;;;;;5.68;1.63;;;32.50;53.40;;;;;;4992138;28;20398;-71
2022/07/19 11:32:54;;;;;;;1.80;1.27;;;32.70;53.50;;;;;;4989601;28;20014;-70
2022/07/19 11:35:19;;;;;;;3.72;2.22;;;32.70;54.20;;;;;;4989177;28;20113;-70
2022/07/19 11:37:45;;;;;;;4.53;1.80;;;32.80;52.20;;;;;;4990937;28;20433;-70
2022/07/19 11:40:12;;;;;;;1.92;1.25;;;32.80;51.70;;;;;;4990902;28;20367;-71
2022/07/19 11:42:44;;;;;;;2.75;1.35;;;33.30;52.40;;;;;;5000852;28;20383;-70
2022/07/19 11:45:15;;;;;;;2.92;1.52;;;32.90;51.30;;;;;;5007012;28;20105;-70
2022/07/19 11:47:42;;;;;;;2.72;1.30;;;32.90;53.00;;;;;;4991038;28;20113;-70
2022/07/19 11:50:10;;;;;;;3.63;1.40;;;33.30;53.10;;;;;;4999001;28;20023;-71
2022/07/19 11:53:02;;;;;;;2.35;1.30;;;32.90;52.60;;;;;;4992549;28;20027;-71
2022/07/19 11:55:35;;;;;;;4.82;1.80;;;34.20;54.30;;;;;;4984270;28;20092;-69
2022/07/19 11:58:06;;;;;;;4.13;1.77;;;33.50;52.90;;;;;;4973109;28;20069;-68
2022/07/19 12:00:33;;;;;;;3.97;1.60;;;33.40;52.50;;;;;;4990144;28;20105;-68
2022/07/19 12:03:04;;;;;;;4.93;1.92;;;33.40;51.90;;;;;;4993057;28;20026;-67
2022/07/19 12:05:39;;;;;;;3.55;1.42;;;33.40;50.50;;;;;;4989767;28;20034;-68
2022/07/19 12:08:08;;;;;;;2.78;1.80;;;33.30;52.00;;;;;;4987239;28;20019;-68
2022/07/19 12:10:50;;;;;;;4.38;1.42;;;33.50;51.40;;;;;;4989545;28;20030;-69
2022/07/19 12:13:36;;;;;;;2.78;1.65;;;33.70;52.40;;;;;;4989831;28;20023;-69
2022/07/19 12:16:10;;;;;;;3.80;1.60;;;33.40;51.10;;;;;;4993337;28;20483;-69
2022/07/19 12:18:53;;;;;;;4.63;1.48;;;33.60;51.10;;;;;;4991108;28;20464;-69
2022/07/19 12:21:25;;;;;;;3.60;1.60;;;33.50;49.50;;;;;;4988811;28;20018;-69
2022/07/19 12:24:31;;;;;;;2.15;1.35;;;33.50;48.40;;;;;;4991011;28;20054;-69
2022/07/19 12:27:09;;;;;;;3.95;1.75;;;33.60;48.60;;;;;;4988547;28;20475;-70
2022/07/19 12:29:40;;;;;;;2.80;1.85;;;33.80;51.30;;;;;;4993412;28;20023;-70
2022/07/19 12:32:27;;;;;;;4.03;1.92;;;33.70;48.20;;;;;;4993259;28;20495;-69
2022/07/19 12:35:00;;;;;;;6.75;1.55;;;34.20;48.00;;;;;;4993151;28;20438;-69
2022/07/19 12:37:27;;;;;;;4.00;2.08;;;33.70;48.20;;;;;;4990801;28;20065;-69
2022/07/19 12:40:09;;;;;;;2.20;1.33;;;33.70;48.60;;;;;;4995457;28;20018;-69
2022/07/19 12:42:36;;;;;;;;;;;34.00;49.00;;;;;;4990047;28;20076;-69
2022/07/19 12:45:04;;;;;;;3.53;1.98;;;35.30;50.70;;;;;;4990765;28;19909;-69
2022/07/19 12:47:30;;;;;;;1.80;1.20;;;33.90;47.90;;;;;;4993494;28;20037;-69
2022/07/19 12:49:56;;;;;;;2.78;1.13;;;34.00;47.60;;;;;;4994283;28;20483;-70
2022/07/19 12:52:21;;;;;;;1.83;1.20;;;34.10;47.60;;;;;;4993542;28;20018;-70